Time;durP1;ratioP1;P1;durP2;ratioP2;P2;SDS_P1;SDS_P2;PMS_P1;PMS_P2;Temp;Humidity;BMP_temperature;BMP_pressure;BME280_temperature;BME280_humidity;BME280_pressure;Samples;Min_cycle;Max_cycle;Signal;HPM_P1;HPM_P2
2021/11/19 00:02:19;;;;;;;8.77;2.70;;;;;;;10.10;58.82;102333.22;4983258;28;20050;-66
2021/11/19 00:04:45;;;;;;;17.58;2.65;;;;;;;9.75;59.75;102328.47;4997321;28;20031;-65
2021/11/19 00:07:11;;;;;;;14.75;2.03;;;;;;;9.62;60.14;102332.13;4993070;28;20407;-66
2021/11/19 00:09:38;;;;;;;10.85;2.28;;;;;;;9.76;59.61;102320.59;4995830;28;20047;-66
2021/11/19 00:12:03;;;;;;;14.43;2.15;;;;;;;10.22;57.96;102338.25;4993695;28;20080;-65
2021/11/19 00:14:29;;;;;;;9.00;1.90;;;;;;;10.09;58.52;102334.09;4994862;28;20046;-67
2021/11/19 00:17:03;;;;;;;7.60;1.58;;;;;;;9.38;60.89;102331.53;4994842;28;20136;-64
2021/11/19 00:19:30;;;;;;;8.63;1.27;;;;;;;10.07;58.79;102341.09;4995466;28;20494;-65
2021/11/19 00:21:56;;;;;;;10.38;1.23;;;;;;;9.79;59.36;102330.16;4979987;28;20050;-66
2021/11/19 00:24:22;;;;;;;7.78;1.35;;;;;;;9.80;59.41;102337.13;4983266;28;20091;-65
2021/11/19 00:26:49;;;;;;;8.10;1.55;;;;;;;9.68;59.27;102332.03;4974317;28;20096;-67
2021/11/19 00:29:15;;;;;;;14.60;2.28;;;;;;;10.24;58.08;102333.03;4980377;28;20404;-66
2021/11/19 00:31:42;;;;;;;6.95;2.00;;;;;;;10.25;58.26;102328.66;4976315;28;20365;-66
2021/11/19 00:34:07;;;;;;;10.93;2.55;;;;;;;10.36;57.95;102337.19;4984801;28;20030;-65
2021/11/19 00:36:35;;;;;;;11.63;1.92;;;;;;;10.30;57.66;102337.28;4996581;28;20092;-71
2021/11/19 00:39:06;;;;;;;10.50;2.83;;;;;;;9.99;58.83;102341.22;4992939;28;20084;-71
2021/11/19 00:41:32;;;;;;;11.38;2.40;;;;;;;10.15;58.22;102349.69;4996540;28;20581;-67
2021/11/19 00:43:58;;;;;;;21.05;3.15;;;;;;;9.94;58.83;102340.41;4984016;28;20053;-67
2021/11/19 00:46:24;;;;;;;19.30;1.60;;;;;;;10.47;57.21;102337.88;4993904;28;20033;-67
2021/11/19 00:48:50;;;;;;;11.43;1.95;;;;;;;10.19;58.11;102340.94;4993423;28;20653;-66
2021/11/19 00:51:26;;;;;;;9.95;2.28;;;;;;;10.04;58.74;102341.16;4986478;28;20534;-66
2021/11/19 00:53:54;;;;;;;18.85;2.53;;;;;;;10.06;58.54;102344.63;4961285;28;20046;-66
2021/11/19 00:56:26;;;;;;;12.63;2.15;;;;;;;10.39;57.67;102345.84;4984893;28;20063;-66
2021/11/19 00:58:53;;;;;;;8.77;2.28;;;;;;;10.04;58.66;102349.00;4993281;28;20654;-67
2021/11/19 01:01:29;;;;;;;13.50;2.47;;;;;;;10.16;58.04;102340.97;4976637;28;20128;-69
2021/11/19 01:03:55;;;;;;;9.98;2.20;;;;;;;10.19;57.61;102335.72;4973944;28;20046;-67
2021/11/19 01:06:24;;;;;;;18.40;2.72;;;;;;;9.93;59.03;102333.47;4983453;28;20045;-67
2021/11/19 01:08:52;;;;;;;10.35;2.00;;;;;;;10.23;58.00;102336.50;4980446;28;20053;-68
2021/11/19 01:11:21;;;;;;;7.25;1.45;;;;;;;9.90;58.88;102333.53;4991673;28;20041;-67
2021/11/19 01:13:49;;;;;;;10.20;1.70;;;;;;;10.14;58.38;102324.44;4977254;28;20060;-70
2021/11/19 01:16:27;;;;;;;18.10;2.72;;;;;;;10.28;57.76;102342.53;4977134;28;20443;-68
2021/11/19 01:19:16;;;;;;;16.23;3.08;;;;;;;10.34;57.48;102337.19;4981961;28;20053;-66
2021/11/19 01:21:52;;;;;;;15.02;3.08;;;;;;;9.89;58.47;102333.53;4974551;28;20125;-67
2021/11/19 01:24:20;;;;;;;12.23;2.40;;;;;;;9.68;59.65;102332.03;4975565;28;20034;-67
2021/11/19 01:26:47;;;;;;;16.27;3.78;;;;;;;9.76;59.45;102325.81;4992799;28;20033;-68
2021/11/19 01:29:16;;;;;;;18.80;3.58;;;;;;;9.92;58.68;102341.31;4977047;28;20040;-67
2021/11/19 01:31:57;;;;;;;14.98;2.97;;;;;;;9.67;59.11;102335.53;4981807;28;20404;-68
2021/11/19 01:34:42;;;;;;;16.35;3.90;;;;;;;9.96;58.67;102335.16;4994090;28;20383;-67
2021/11/19 01:37:22;;;;;;;11.75;2.92;;;;;;;10.21;58.09;102343.50;4996105;28;20070;-70
2021/11/19 01:40:17;;;;;;;15.32;2.88;;;;;;;10.08;58.34;102335.00;4992158;28;20136;-66
2021/11/19 01:43:12;;;;;;;11.82;2.85;;;;;;;10.26;57.64;102336.47;4982217;28;20049;-66
2021/11/19 01:45:49;;;;;;;17.33;2.67;;;;;;;10.33;57.62;102342.47;4992031;28;20070;-67
2021/11/19 01:48:20;;;;;;;15.45;3.63;;;;;;;10.05;58.54;102345.47;4975791;28;20038;-66
2021/11/19 01:50:55;;;;;;;23.48;3.70;;;;;;;10.06;58.57;102346.34;4996168;28;20494;-66
2021/11/19 01:53:40;;;;;;;13.73;2.60;;;;;;;9.85;58.75;102342.28;4977677;28;20037;-66
2021/11/19 01:56:17;;;;;;;18.70;5.05;;;;;;;9.82;59.11;102332.75;4977446;28;20040;-66
2021/11/19 01:59:03;;;;;;;16.35;2.88;;;;;;;9.72;59.10;102332.00;4960052;28;20070;-65
2021/11/19 02:01:33;;;;;;;13.70;2.85;;;;;;;9.56;59.74;102333.03;4993532;28;20594;-66
2021/11/19 02:04:04;;;;;;;15.57;3.17;;;;;;;10.05;58.44;102337.63;4976942;28;20053;-65
2021/11/19 02:06:42;;;;;;;14.45;3.60;;;;;;;10.14;57.91;102342.72;4961211;28;20037;-64
2021/11/19 02:09:37;;;;;;;17.05;3.10;;;;;;;9.99;58.63;102335.09;4991796;28;20129;-65
2021/11/19 02:12:52;;;;;;;15.30;3.75;;;;;;;9.79;58.98;102333.66;4975842;28;20081;-67
2021/11/19 02:15:24;;;;;;;17.38;2.72;;;;;;;9.55;59.69;102326.97;4970636;28;20034;-66
2021/11/19 02:17:54;;;;;;;18.05;2.65;;;;;;;9.50;60.12;102317.47;4991239;28;20081;-67
2021/11/19 02:20:29;;;;;;;18.65;3.90;;;;;;;9.82;58.83;102314.47;4994871;28;20042;-66
2021/11/19 02:23:01;;;;;;;20.27;4.55;;;;;;;9.74;59.10;102316.28;4993600;28;20516;-66
2021/11/19 02:25:32;;;;;;;13.10;2.70;;;;;;;9.87;58.68;102314.41;4982793;28;20502;-66
2021/11/19 02:28:13;;;;;;;13.57;2.05;;;;;;;10.02;58.25;102306.34;4993280;28;20042;-67
2021/11/19 02:30:51;;;;;;;15.18;2.38;;;;;;;9.85;58.80;102313.56;4990727;28;20045;-66
2021/11/19 02:33:19;;;;;;;13.43;2.38;;;;;;;9.86;58.75;102303.09;4950979;28;20137;-66
2021/11/19 02:35:56;;;;;;;19.33;2.47;;;;;;;9.67;59.22;102294.63;4982425;28;20037;-67
2021/11/19 02:38:48;;;;;;;17.37;2.13;;;;;;;9.63;59.35;102303.38;4991948;28;20190;-66
2021/11/19 02:41:17;;;;;;;14.20;2.33;;;;;;;9.37;60.15;102301.97;4991739;28;20057;-67
2021/11/19 02:43:55;;;;;;;7.43;2.17;;;;;;;10.20;57.84;102310.44;4971069;28;20046;-67
2021/11/19 02:46:34;;;;;;;16.75;2.63;;;;;;;9.91;58.33;102308.25;4982554;28;20302;-66
2021/11/19 02:49:03;;;;;;;15.00;2.55;;;;;;;10.30;57.52;102305.91;4998583;28;20038;-66
2021/11/19 02:51:30;;;;;;;16.65;2.60;;;;;;;10.11;58.05;102297.50;4994477;28;20533;-66
2021/11/19 02:53:57;;;;;;;16.67;2.88;;;;;;;9.77;58.77;102301.44;5012342;28;20112;-68
2021/11/19 02:56:24;;;;;;;15.23;3.67;;;;;;;9.83;58.48;102302.28;4998865;28;20029;-66
2021/11/19 02:58:53;;;;;;;10.68;2.30;;;;;;;9.55;59.19;102298.25;5002588;28;20046;-68
2021/11/19 03:01:19;;;;;;;11.70;2.42;;;;;;;9.63;58.69;102299.91;5016227;28;20230;-66
2021/11/19 03:04:05;;;;;;;11.27;2.75;;;;;;;9.60;59.23;102312.09;4999117;28;20089;-66
2021/11/19 03:06:32;;;;;;;15.82;2.25;;;;;;;9.83;58.42;102312.72;5011056;28;20044;-66
2021/11/19 03:08:58;;;;;;;9.75;2.05;;;;;;;9.90;58.21;102306.50;4979804;28;20045;-68
2021/11/19 03:11:24;;;;;;;11.57;2.72;;;;;;;9.94;57.86;102313.44;4985687;28;20030;-68
2021/11/19 03:13:50;;;;;;;16.90;2.63;;;;;;;9.47;59.75;102315.75;4978903;28;20042;-69
2021/11/19 03:16:16;;;;;;;7.72;1.77;;;;;;;9.56;59.41;102312.16;4975679;28;20100;-66
2021/11/19 03:18:42;;;;;;;11.73;1.90;;;;;;;10.02;58.08;102324.63;4974308;28;20112;-68
2021/11/19 03:21:15;;;;;;;8.35;2.25;;;;;;;10.04;58.03;102333.31;4978088;28;20037;-66
2021/11/19 03:23:41;;;;;;;15.70;1.70;;;;;;;10.05;58.02;102337.63;4981347;28;20061;-64
2021/11/19 03:26:10;;;;;;;15.23;1.92;;;;;;;9.75;58.66;102331.94;4971691;28;20264;-67
2021/11/19 03:28:37;;;;;;;7.50;1.95;;;;;;;9.95;58.52;102333.44;4978526;28;20049;-67
2021/11/19 03:31:07;;;;;;;9.18;2.40;;;;;;;9.72;58.91;102333.72;4976821;28;20026;-69
2021/11/19 03:33:38;;;;;;;13.55;2.17;;;;;;;9.80;58.76;102332.75;4966459;28;20057;-69
2021/11/19 03:36:06;;;;;;;8.55;1.83;;;;;;;9.83;58.48;102328.38;4977892;28;20113;-68
2021/11/19 03:38:35;;;;;;;11.38;1.90;;;;;;;9.52;59.00;102332.25;4975376;28;20132;-69
2021/11/19 03:41:03;;;;;;;12.63;2.22;;;;;;;9.90;58.14;102327.41;4977185;28;20026;-68
2021/11/19 03:43:35;;;;;;;14.70;2.38;;;;;;;9.79;58.76;102325.81;4975691;28;20058;-69
2021/11/19 03:46:16;;;;;;;10.63;2.58;;;;;;;10.04;57.68;102345.53;4973419;28;20113;-66
2021/11/19 03:48:42;;;;;;;11.57;2.35;;;;;;;9.69;58.92;102337.22;4993497;28;20097;-70
2021/11/19 03:51:34;;;;;;;11.20;2.58;;;;;;;9.69;58.97;102334.63;4970706;28;20061;-65
2021/11/19 03:54:01;;;;;;;15.13;2.58;;;;;;;9.57;59.27;102337.41;4980211;28;20426;-64
2021/11/19 03:56:28;;;;;;;18.63;2.25;;;;;;;9.90;58.39;102343.06;4980687;28;20030;-69
2021/11/19 03:58:54;;;;;;;8.48;2.10;;;;;;;9.74;58.40;102348.47;4994930;28;20046;-67
2021/11/19 04:01:27;;;;;;;12.30;2.20;;;;;;;10.14;57.21;102336.66;4980224;28;20033;-68
2021/11/19 04:03:55;;;;;;;14.27;2.47;;;;;;;10.07;57.64;102348.06;4979616;28;20038;-67
2021/11/19 04:06:23;;;;;;;12.30;2.10;;;;;;;10.26;57.20;102348.66;4981957;28;20030;-66
2021/11/19 04:08:49;;;;;;;8.55;2.35;;;;;;;10.25;56.95;102341.72;4980310;28;20042;-67
2021/11/19 04:11:18;;;;;;;9.85;2.78;;;;;;;10.04;57.78;102346.38;4996259;28;20034;-65
2021/11/19 04:13:45;;;;;;;15.95;3.47;;;;;;;9.26;60.02;102344.72;4976707;28;20637;-65
2021/11/19 04:16:24;;;;;;;10.65;2.20;;;;;;;9.96;58.00;102340.38;4998309;28;20049;-66
2021/11/19 04:18:51;;;;;;;16.50;2.88;;;;;;;9.91;58.10;102337.84;4983278;28;20168;-65
2021/11/19 04:21:17;;;;;;;16.73;2.15;;;;;;;9.77;58.24;102345.84;4995226;28;20118;-65
2021/11/19 04:23:43;;;;;;;16.35;3.28;;;;;;;10.12;57.36;102341.88;4979037;28;20049;-70
2021/11/19 04:26:10;;;;;;;10.90;2.33;;;;;;;9.92;57.88;102338.69;4979976;28;20113;-70
2021/11/19 04:28:37;;;;;;;15.23;2.80;;;;;;;9.80;58.19;102331.91;4985036;28;20434;-70
2021/11/19 04:31:26;;;;;;;16.23;2.53;;;;;;;9.56;59.10;102325.22;4993829;28;20077;-70
2021/11/19 04:33:52;;;;;;;8.40;2.33;;;;;;;9.69;58.75;102333.75;4960273;28;20045;-68
2021/11/19 04:36:18;;;;;;;18.63;2.45;;;;;;;9.60;58.86;102329.53;4991926;28;20029;-68
2021/11/19 04:38:44;;;;;;;22.08;2.72;;;;;;;9.75;58.56;102328.47;4961221;28;20045;-69
2021/11/19 04:41:11;;;;;;;18.42;1.95;;;;;;;9.80;58.40;102332.75;4994828;28;20433;-68
2021/11/19 04:43:38;;;;;;;11.35;2.63;;;;;;;10.01;57.40;102331.63;4996434;28;20054;-69
2021/11/19 04:46:06;;;;;;;14.43;3.15;;;;;;;9.85;58.23;102337.91;4977214;28;20080;-69
2021/11/19 04:48:34;;;;;;;11.48;3.30;;;;;;;9.96;57.42;102335.16;4978655;28;20042;-65
2021/11/19 04:51:07;;;;;;;9.38;2.22;;;;;;;9.78;58.06;102317.97;4962063;28;20076;-67
2021/11/19 04:53:34;;;;;;;10.20;2.35;;;;;;;9.66;58.46;102332.06;4974895;28;20054;-67
2021/11/19 04:56:02;;;;;;;17.27;3.50;;;;;;;9.47;59.15;102336.63;4996032;28;20034;-67
2021/11/19 04:58:29;;;;;;;13.27;4.22;;;;;;;9.75;58.56;102341.53;4978065;28;20046;-66
2021/11/19 05:01:01;;;;;;;9.77;1.73;;;;;;;9.48;59.49;102334.91;4975544;28;20038;-65
2021/11/19 05:03:38;;;;;;;14.43;3.03;;;;;;;9.74;58.56;102343.25;4980484;28;20112;-65
2021/11/19 05:06:04;;;;;;;21.55;3.17;;;;;;;9.52;58.96;102341.78;4977736;28;20034;-66
2021/11/19 05:08:31;;;;;;;13.93;2.63;;;;;;;10.05;57.53;102342.88;4979053;28;21011;-67
2021/11/19 05:10:57;;;;;;;15.82;3.88;;;;;;;9.73;58.39;102336.31;4962215;28;20046;-68
2021/11/19 05:13:29;;;;;;;16.10;3.00;;;;;;;9.66;58.90;102345.13;4994691;28;20042;-68
2021/11/19 05:16:04;;;;;;;16.08;3.25;;;;;;;9.82;58.21;102337.13;4979957;28;20096;-69
2021/11/19 05:18:30;;;;;;;10.25;2.17;;;;;;;9.74;58.06;102343.25;4991563;28;20112;-68
2021/11/19 05:20:56;;;;;;;12.90;2.15;;;;;;;10.20;57.19;102347.88;4978647;28;20038;-67
2021/11/19 05:23:23;;;;;;;17.60;2.50;;;;;;;9.61;59.03;102346.94;4997122;28;20579;-66
2021/11/19 05:25:49;;;;;;;16.45;3.15;;;;;;;9.53;59.04;102343.53;4995484;28;20029;-67
2021/11/19 05:28:20;;;;;;;16.58;3.00;;;;;;;10.00;57.32;102334.25;4978519;28;20507;-66
2021/11/19 05:30:48;;;;;;;14.52;3.28;;;;;;;9.85;58.27;102344.91;4978291;28;20034;-67
2021/11/19 05:33:17;;;;;;;18.60;3.33;;;;;;;9.44;59.20;102335.81;4995167;28;20422;-68
2021/11/19 05:35:43;;;;;;;12.60;2.58;;;;;;;9.89;58.08;102341.38;4974327;28;20116;-68
2021/11/19 05:38:11;;;;;;;13.32;3.58;;;;;;;9.89;58.09;102333.53;4977470;28;20882;-69
2021/11/19 05:40:37;;;;;;;14.57;2.78;;;;;;;10.03;57.88;102331.56;4978831;28;20041;-70
2021/11/19 05:43:03;;;;;;;16.83;3.20;;;;;;;9.88;57.93;102339.63;4977914;28;20053;-69
2021/11/19 05:45:40;;;;;;;11.75;3.15;;;;;;;9.86;58.24;102339.66;4992271;28;20487;-70
2021/11/19 05:48:19;;;;;;;12.65;3.35;;;;;;;9.39;59.77;102341.97;4976380;28;20124;-69
2021/11/19 05:50:45;;;;;;;7.80;2.80;;;;;;;9.74;58.49;102340.63;4997313;28;20109;-68
2021/11/19 05:53:13;;;;;;;16.35;3.72;;;;;;;10.05;57.60;102342.88;4978920;28;20570;-69
2021/11/19 05:55:42;;;;;;;11.75;2.70;;;;;;;10.00;57.75;102344.69;4992874;28;20472;-68
2021/11/19 05:58:08;;;;;;;16.20;2.85;;;;;;;9.96;57.64;102350.84;4992129;28;20034;-68
2021/11/19 06:00:50;;;;;;;18.83;2.63;;;;;;;9.82;58.60;102347.56;4977009;28;20216;-69
2021/11/19 06:03:34;;;;;;;8.15;2.85;;;;;;;10.13;57.52;102361.06;4974041;28;20061;-67
2021/11/19 06:06:09;;;;;;;14.45;3.65;;;;;;;9.85;57.80;102356.19;4978343;28;20026;-67
2021/11/19 06:08:53;;;;;;;12.10;2.70;;;;;;;9.83;58.26;102370.16;4992249;28;20045;-68
2021/11/19 06:11:29;;;;;;;12.77;2.67;;;;;;;9.99;57.43;102369.94;4977867;28;20029;-67
2021/11/19 06:13:58;;;;;;;15.40;2.38;;;;;;;9.84;58.10;102369.31;4973225;28;20057;-68
2021/11/19 06:16:37;;;;;;;10.75;2.42;;;;;;;10.24;56.66;102373.97;4992185;28;20072;-68
2021/11/19 06:19:10;;;;;;;9.23;2.03;;;;;;;9.78;57.77;102363.22;4977100;28;20105;-66
2021/11/19 06:21:40;;;;;;;10.27;3.08;;;;;;;9.35;59.81;102382.00;4982016;28;20049;-68
2021/11/19 06:24:10;;;;;;;13.98;2.53;;;;;;;9.78;58.09;102378.03;4978997;28;20458;-66
2021/11/19 06:26:40;;;;;;;15.32;2.38;;;;;;;10.15;57.30;102381.03;4980814;28;20501;-66
2021/11/19 06:29:06;;;;;;;14.45;2.75;;;;;;;10.07;57.36;102374.19;4978791;28;20032;-66
2021/11/19 06:31:37;;;;;;;13.02;2.53;;;;;;;9.75;58.59;102381.53;4983174;28;20053;-67
2021/11/19 06:34:04;;;;;;;18.48;4.25;;;;;;;9.69;58.60;102371.16;4984889;28;20323;-66
2021/11/19 06:36:31;;;;;;;17.05;2.70;;;;;;;9.82;58.31;102369.31;4963954;28;20041;-67
2021/11/19 06:38:59;;;;;;;11.57;3.45;;;;;;;9.73;58.48;102383.31;4992463;28;20046;-66
2021/11/19 06:41:26;;;;;;;17.35;2.75;;;;;;;9.64;58.50;102391.25;4982945;28;20099;-67
2021/11/19 06:44:29;;;;;;;12.75;2.63;;;;;;;9.88;57.79;102387.53;4994737;28;20062;-69
2021/11/19 06:47:13;;;;;;;7.90;2.45;;;;;;;9.66;58.73;102386.88;4976313;28;20153;-67
2021/11/19 06:49:57;;;;;;;20.65;2.65;;;;;;;10.19;57.20;102395.81;4997233;28;20068;-67
2021/11/19 06:52:55;;;;;;;18.73;3.60;;;;;;;9.83;58.09;102391.91;4956827;28;20054;-67
2021/11/19 06:55:44;;;;;;;16.50;2.90;;;;;;;9.49;59.37;102402.72;4999942;28;20503;-68
2021/11/19 06:58:28;;;;;;;13.85;2.72;;;;;;;9.39;59.62;102398.50;4968550;28;20030;-68
2021/11/19 07:00:56;;;;;;;13.00;2.42;;;;;;;9.78;58.27;102407.59;4978569;28;20038;-67
2021/11/19 07:03:22;;;;;;;8.68;2.05;;;;;;;9.95;57.75;102403.97;4975735;28;20057;-65
2021/11/19 07:05:48;;;;;;;25.08;3.05;;;;;;;9.45;59.29;102405.38;4999637;28;20523;-64
2021/11/19 07:08:14;;;;;;;8.30;2.38;;;;;;;9.43;59.82;102409.75;4995659;28;20077;-65
2021/11/19 07:10:43;;;;;;;9.63;2.75;;;;;;;9.64;59.10;102403.47;4998119;28;20490;-65
2021/11/19 07:13:11;;;;;;;12.43;3.08;;;;;;;10.00;57.75;102407.38;4979204;28;20125;-65
2021/11/19 07:15:39;;;;;;;6.53;2.00;;;;;;;9.42;59.77;102408.03;4979314;28;20052;-64
2021/11/19 07:18:05;;;;;;;11.40;1.85;;;;;;;9.19;60.59;102410.00;4976914;28;20041;-65
2021/11/19 07:20:32;;;;;;;14.50;2.65;;;;;;;9.63;59.15;102423.44;4978418;28;20045;-64
2021/11/19 07:22:58;;;;;;;18.33;2.75;;;;;;;9.19;60.38;102419.59;4994764;28;20145;-64
2021/11/19 07:25:27;;;;;;;18.15;2.80;;;;;;;9.99;58.00;102432.66;4986173;28;20040;-65
2021/11/19 07:27:56;;;;;;;7.85;2.92;;;;;;;9.27;59.96;102433.41;4998902;28;20559;-65
2021/11/19 07:32:50;;;;;;;11.25;2.38;;;;;;;9.99;58.27;102430.03;4974560;28;20045;-67
2021/11/19 07:35:33;;;;;;;13.43;2.85;;;;;;;9.92;58.17;102435.34;4982344;28;20051;-67
2021/11/19 07:38:17;;;;;;;17.63;3.10;;;;;;;9.94;58.07;102439.66;4976447;28;20050;-66
2021/11/19 07:41:01;;;;;;;10.70;2.25;;;;;;;10.08;57.88;102444.72;4976177;28;20069;-66
2021/11/19 07:43:48;;;;;;;13.75;2.47;;;;;;;9.40;60.03;102441.97;4970239;28;21027;-67
2021/11/19 07:46:22;;;;;;;16.67;2.03;;;;;;;9.91;58.69;102449.28;4976574;28;20037;-67
2021/11/19 07:48:52;;;;;;;15.60;3.38;;;;;;;9.74;59.00;102441.59;4975701;28;20431;-67
2021/11/19 07:51:28;;;;;;;11.40;3.28;;;;;;;9.65;59.41;102442.56;4965455;28;20036;-66
2021/11/19 07:53:54;;;;;;;16.15;2.55;;;;;;;9.69;59.21;102444.28;4973500;28;20030;-64
2021/11/19 07:56:31;;;;;;;21.35;2.70;;;;;;;9.60;59.54;102447.84;4974237;28;20092;-65
2021/11/19 07:59:19;;;;;;;10.93;1.75;;;;;;;9.96;58.44;102437.88;4963004;28;20423;-65
2021/11/19 08:01:46;;;;;;;16.77;2.30;;;;;;;9.90;58.38;102438.00;4977669;28;20035;-65
2021/11/19 08:04:13;;;;;;;13.00;2.35;;;;;;;10.36;57.35;102441.72;4977458;28;20496;-65
2021/11/19 08:06:39;;;;;;;10.80;1.70;;;;;;;10.12;57.97;102438.56;4971504;28;20909;-67
2021/11/19 08:09:25;;;;;;;5.47;1.85;;;;;;;9.90;58.25;102442.31;4939257;28;20113;-67
2021/11/19 08:11:58;;;;;;;9.50;1.77;;;;;;;10.27;57.04;102452.31;4964849;28;20054;-63
2021/11/19 08:14:25;;;;;;;14.23;2.67;;;;;;;9.74;58.59;102452.06;4976456;28;20034;-66
2021/11/19 08:17:14;;;;;;;9.07;1.85;;;;;;;10.08;57.74;102447.34;4972703;28;21288;-66
2021/11/19 08:19:46;;;;;;;7.22;2.00;;;;;;;9.75;58.44;102445.97;4974820;28;20150;-66
2021/11/19 08:22:15;;;;;;;15.73;1.85;;;;;;;10.02;58.27;102448.25;4977489;28;20039;-65
2021/11/19 08:24:41;;;;;;;12.77;2.08;;;;;;;9.78;58.66;102452.00;4976948;28;20072;-65
2021/11/19 08:27:12;;;;;;;13.18;2.20;;;;;;;9.97;58.09;102454.44;4976153;28;20057;-66
2021/11/19 08:29:40;;;;;;;14.43;2.05;;;;;;;10.13;57.55;102442.91;4961121;28;20794;-66
2021/11/19 08:32:07;;;;;;;11.65;2.95;;;;;;;9.79;58.94;102439.84;4973932;28;20139;-66
2021/11/19 08:34:33;;;;;;;19.55;3.45;;;;;;;10.18;57.45;102448.94;4981760;28;20038;-67
2021/11/19 08:37:01;;;;;;;19.08;3.33;;;;;;;10.41;56.77;102440.78;4970170;28;20109;-65
2021/11/19 08:39:27;;;;;;;13.48;1.50;;;;;;;10.24;56.89;102445.38;4973788;28;20034;-64
2021/11/19 08:41:54;;;;;;;16.35;1.75;;;;;;;9.91;58.00;102450.16;4974789;28;20065;-66
2021/11/19 08:44:20;;;;;;;16.50;2.00;;;;;;;10.32;57.02;102455.72;4976788;28;20384;-66
2021/11/19 08:46:49;;;;;;;9.10;2.10;;;;;;;9.63;59.15;102453.91;4971676;28;20114;-67
2021/11/19 08:49:19;;;;;;;16.55;2.22;;;;;;;9.69;58.54;102454.72;4973438;28;20142;-66
2021/11/19 08:51:46;;;;;;;15.57;2.13;;;;;;;10.07;57.66;102452.56;4972793;28;20042;-66
2021/11/19 08:54:14;;;;;;;13.65;1.85;;;;;;;10.04;57.32;102456.09;4971108;28;20038;-66
2021/11/19 08:56:42;;;;;;;15.80;2.78;;;;;;;9.77;57.85;102452.91;5018023;22;20050;-67
2021/11/19 08:59:10;;;;;;;8.18;2.25;;;;;;;10.12;57.58;102438.56;4961217;28;20287;-67
2021/11/19 09:01:38;;;;;;;11.43;2.25;;;;;;;10.26;56.99;102450.56;5000027;28;20125;-67
2021/11/19 09:04:04;;;;;;;16.25;2.47;;;;;;;9.87;58.16;102450.19;4986724;28;20030;-69
2021/11/19 09:06:30;;;;;;;13.60;2.47;;;;;;;9.89;57.69;102445.84;4987083;28;20110;-68
2021/11/19 09:08:55;;;;;;;8.55;1.88;;;;;;;10.30;56.95;102444.41;5005286;28;20053;-68
2021/11/19 09:11:23;;;;;;;21.67;3.00;;;;;;;9.73;58.21;102451.19;4991222;28;20442;-69
2021/11/19 09:13:51;;;;;;;10.25;2.58;;;;;;;10.06;57.34;102450.81;4987130;28;20100;-69
2021/11/19 09:16:20;;;;;;;16.05;2.65;;;;;;;9.88;57.67;102457.16;4983827;28;20042;-69
2021/11/19 09:19:04;;;;;;;9.75;1.55;;;;;;;10.43;56.44;102465.13;4962607;28;20057;-70
2021/11/19 09:21:48;;;;;;;19.15;3.53;;;;;;;9.99;57.62;102460.50;4978703;28;20056;-67
2021/11/19 09:24:23;;;;;;;17.30;2.75;;;;;;;9.89;58.07;102461.50;4986907;28;20068;-69
2021/11/19 09:26:56;;;;;;;20.08;2.25;;;;;;;9.90;57.99;102458.00;4994457;28;20403;-69
2021/11/19 09:29:27;;;;;;;13.90;2.45;;;;;;;9.86;58.06;102469.38;4987387;28;20096;-70
2021/11/19 09:31:53;;;;;;;18.25;2.78;;;;;;;10.50;56.04;102470.28;5001942;28;20125;-69
2021/11/19 09:34:21;;;;;;;12.75;1.88;;;;;;;10.02;57.19;102479.63;5004405;28;20042;-68
2021/11/19 09:36:47;;;;;;;10.20;2.67;;;;;;;10.73;55.65;102476.06;5002232;28;20099;-67
2021/11/19 09:39:15;;;;;;;19.90;2.35;;;;;;;10.33;56.24;102478.38;4982470;28;20045;-67
2021/11/19 09:41:49;;;;;;;11.65;2.70;;;;;;;9.74;58.10;102468.56;5002010;28;20030;-68
2021/11/19 09:44:14;;;;;;;18.23;2.53;;;;;;;10.09;57.13;102469.09;4994846;28;20029;-67
2021/11/19 09:47:18;;;;;;;18.85;2.60;;;;;;;10.10;57.02;102466.47;4976705;28;20065;-67
2021/11/19 09:50:13;;;;;;;14.40;1.60;;;;;;;10.58;55.96;102471.91;5001837;28;20030;-67
2021/11/19 09:53:16;;;;;;;9.23;1.75;;;;;;;10.62;55.28;102463.13;4932011;28;20806;-68
2021/11/19 09:56:00;;;;;;;13.68;2.53;;;;;;;10.86;54.87;102474.16;4985531;28;20037;-67
2021/11/19 09:58:35;;;;;;;17.20;2.75;;;;;;;10.19;56.45;102471.56;4979720;28;20431;-67
2021/11/19 10:01:35;;;;;;;16.33;1.95;;;;;;;10.94;54.45;102482.72;4984895;28;20444;-67
2021/11/19 10:04:35;;;;;;;21.38;2.50;;;;;;;10.45;55.56;102478.19;4979097;28;20046;-68
2021/11/19 10:07:19;;;;;;;13.98;1.75;;;;;;;10.50;55.59;102478.97;4993272;28;20046;-68
2021/11/19 10:10:05;;;;;;;13.63;2.65;;;;;;;10.41;55.84;102473.88;5003458;28;20043;-68
2021/11/19 10:12:41;;;;;;;31.77;2.88;;;;;;;10.30;56.32;102481.00;5002685;28;20074;-68
2021/11/19 10:15:38;;;;;;;13.30;1.95;;;;;;;10.28;56.12;102480.16;5002776;28;20273;-68
2021/11/19 10:18:11;;;;;;;13.30;1.48;;;;;;;10.39;55.78;102479.16;4916389;28;20052;-68
2021/11/19 10:20:48;;;;;;;18.90;2.38;;;;;;;10.56;55.77;102489.34;4991913;28;20049;-67
2021/11/19 10:23:20;;;;;;;20.75;1.98;;;;;;;10.25;55.99;102485.44;4982882;28;20081;-67
2021/11/19 10:26:03;;;;;;;9.60;1.30;;;;;;;10.56;55.27;102484.13;5003244;28;20121;-68
2021/11/19 10:28:45;;;;;;;15.15;2.60;;;;;;;10.48;55.48;102483.41;4968351;28;20069;-67
2021/11/19 10:31:20;;;;;;;18.17;2.50;;;;;;;10.27;56.21;102481.06;4989688;28;20038;-68
2021/11/19 10:33:51;;;;;;;22.55;1.98;;;;;;;10.43;55.22;102491.28;4969063;28;20060;-67
2021/11/19 10:36:31;;;;;;;12.02;1.83;;;;;;;10.77;54.82;102495.16;5007392;28;20609;-68
2021/11/19 10:39:02;;;;;;;9.90;1.60;;;;;;;11.06;53.88;102502.59;4986693;28;20041;-67
2021/11/19 10:42:03;;;;;;;20.77;2.25;;;;;;;10.67;54.77;102499.66;4964323;28;20034;-69
2021/11/19 10:44:56;;;;;;;10.43;1.92;;;;;;;10.94;54.11;102497.56;4958672;28;20054;-68
2021/11/19 10:47:49;;;;;;;8.63;1.17;;;;;;;11.15;53.02;102496.34;4985155;28;20069;-67
2021/11/19 10:50:43;;;;;;;14.23;3.13;;;;;;;10.67;54.67;102490.97;4980526;28;20073;-67
2021/11/19 10:53:27;;;;;;;20.58;2.15;;;;;;;10.45;54.48;102482.56;5001462;28;20053;-68
2021/11/19 10:56:21;;;;;;;7.80;1.00;;;;;;;11.28;52.85;102492.63;4984817;28;20041;-71
2021/11/19 10:58:50;;;;;;;9.27;2.33;;;;;;;10.87;53.46;102481.09;4970775;28;20050;-68
2021/11/19 11:01:36;;;;;;;13.05;1.85;;;;;;;11.03;53.32;102495.66;4987109;28;20058;-67
2021/11/19 11:04:14;;;;;;;11.70;1.38;;;;;;;11.12;52.94;102480.69;5005595;28;20053;-67
2021/11/19 11:06:42;;;;;;;20.85;1.73;;;;;;;11.25;52.61;102475.22;4985759;28;20053;-68
2021/11/19 11:09:23;;;;;;;9.52;1.42;;;;;;;11.36;51.76;102485.50;4989745;28;20049;-67
2021/11/19 11:11:56;;;;;;;11.75;1.45;;;;;;;11.75;51.59;102463.84;4984820;28;20100;-67
2021/11/19 11:14:27;;;;;;;21.35;1.90;;;;;;;11.02;52.42;102470.38;5004306;28;20042;-67
2021/11/19 11:16:53;;;;;;;9.95;1.35;;;;;;;11.57;51.49;102470.28;5008226;28;20034;-66
2021/11/19 11:19:24;;;;;;;18.83;1.92;;;;;;;10.95;52.83;102463.53;4986190;28;20822;-67
2021/11/19 11:21:50;;;;;;;8.25;1.75;;;;;;;11.25;52.15;102466.50;4985055;28;20546;-67
2021/11/19 11:24:44;;;;;;;15.68;1.73;;;;;;;11.21;52.48;102480.53;4987331;28;20026;-67
2021/11/19 11:27:34;;;;;;;14.48;1.08;;;;;;;10.94;53.19;102461.78;4982711;28;20045;-67
2021/11/19 11:30:08;;;;;;;17.90;2.75;;;;;;;10.95;52.68;102460.91;4976379;28;20475;-67
2021/11/19 11:32:55;;;;;;;8.20;1.30;;;;;;;11.12;52.32;102467.63;5001450;28;20058;-68
2021/11/19 11:35:33;;;;;;;7.93;1.10;;;;;;;10.86;52.77;102478.50;4984754;28;20091;-68
2021/11/19 11:38:14;;;;;;;9.85;1.88;;;;;;;10.82;52.86;102465.47;4982421;28;20049;-70
2021/11/19 11:40:56;;;;;;;10.40;1.13;;;;;;;10.69;53.32;102468.28;4985792;28;20042;-68
2021/11/19 11:43:28;;;;;;;11.60;1.50;;;;;;;11.03;52.72;102472.09;5000032;28;20053;-68
2021/11/19 11:46:13;;;;;;;9.90;1.35;;;;;;;10.96;52.69;102475.72;4984063;28;20046;-68
2021/11/19 11:48:50;;;;;;;6.13;1.42;;;;;;;10.94;52.57;102481.88;4984059;28;20062;-69
2021/11/19 11:51:24;;;;;;;11.52;2.08;;;;;;;11.01;52.29;102479.09;4981098;28;20045;-67
2021/11/19 11:54:01;;;;;;;7.57;1.05;;;;;;;11.07;52.18;102482.53;4982898;28;20519;-66
2021/11/19 11:56:31;;;;;;;11.23;1.38;;;;;;;11.24;51.64;102475.25;4991743;28;20041;-67